sensor_id;sensor_type;location;lat;lon;timestamp;pressure;altitude;pressure_sealevel;temperature;humidity
47374;BME280;33123;50.118;10.272;2023-05-24T00:00:22;98065.94;;;11.87;65.00
47374;BME280;33123;50.118;10.272;2023-05-24T00:02:49;97754.53;;;9.88;65.11
47374;BME280;33123;50.118;10.272;2023-05-24T00:05:16;98067.03;;;11.91;64.92
47374;BME280;33123;50.118;10.272;2023-05-24T00:07:43;97857.38;;;10.61;64.99
47374;BME280;33123;50.118;10.272;2023-05-24T00:10:13;97685.03;;;9.50;64.97
47374;BME280;33123;50.118;10.272;2023-05-24T00:12:43;97807.81;;;10.24;64.61
47374;BME280;33123;50.118;10.272;2023-05-24T00:15:10;97991.13;;;11.43;64.72
47374;BME280;33123;50.118;10.272;2023-05-24T00:17:39;97664.53;;;9.36;64.55
47374;BME280;33123;50.118;10.272;2023-05-24T00:20:09;98059.31;;;11.84;64.86
47374;BME280;33123;50.118;10.272;2023-05-24T00:22:39;97997.22;;;11.43;64.47
47374;BME280;33123;50.118;10.272;2023-05-24T00:25:07;97784.25;;;10.00;63.79
47374;BME280;33123;50.118;10.272;2023-05-24T00:27:35;97946.13;;;10.94;63.97
47374;BME280;33123;50.118;10.272;2023-05-24T00:30:02;97856.00;;;10.41;63.40
47374;BME280;33123;50.118;10.272;2023-05-24T00:32:29;98053.84;;;11.74;63.58
47374;BME280;33123;50.118;10.272;2023-05-24T00:34:58;98020.34;;;11.36;63.85
47374;BME280;33123;50.118;10.272;2023-05-24T00:37:24;97811.38;;;10.18;63.21
47374;BME280;33123;50.118;10.272;2023-05-24T00:39:51;98056.69;;;11.68;63.45
47374;BME280;33123;50.118;10.272;2023-05-24T00:42:18;98058.53;;;11.67;63.18
47374;BME280;33123;50.118;10.272;2023-05-24T00:44:45;98057.94;;;11.65;63.25
47374;BME280;33123;50.118;10.272;2023-05-24T00:47:11;98053.97;;;11.62;62.98
47374;BME280;33123;50.118;10.272;2023-05-24T00:49:38;98048.38;;;11.59;63.25
47374;BME280;33123;50.118;10.272;2023-05-24T00:52:07;98033.75;;;11.51;63.37
47374;BME280;33123;50.118;10.272;2023-05-24T00:54:34;98042.72;;;11.50;63.31
47374;BME280;33123;50.118;10.272;2023-05-24T00:57:00;98039.50;;;11.48;63.46
47374;BME280;33123;50.118;10.272;2023-05-24T00:59:27;98037.38;;;11.45;63.36
47374;BME280;33123;50.118;10.272;2023-05-24T01:01:54;98045.50;;;11.44;63.55
47374;BME280;33123;50.118;10.272;2023-05-24T01:04:20;98038.63;;;11.43;63.74
47374;BME280;33123;50.118;10.272;2023-05-24T01:06:55;98032.56;;;11.42;63.94
47374;BME280;33123;50.118;10.272;2023-05-24T01:09:33;98037.84;;;11.42;63.98
47374;BME280;33123;50.118;10.272;2023-05-24T01:12:10;97999.97;;;11.15;63.63
47374;BME280;33123;50.118;10.272;2023-05-24T01:14:45;98038.34;;;11.39;64.09
47374;BME280;33123;50.118;10.272;2023-05-24T01:17:20;98009.00;;;11.19;63.74
47374;BME280;33123;50.118;10.272;2023-05-24T01:19:56;98039.94;;;11.40;63.46
47374;BME280;33123;50.118;10.272;2023-05-24T01:25:11;98038.09;;;11.41;63.40
47374;BME280;33123;50.118;10.272;2023-05-24T01:27:42;98030.44;;;11.39;63.33
47374;BME280;33123;50.118;10.272;2023-05-24T01:30:10;98038.03;;;11.35;63.66
47374;BME280;33123;50.118;10.272;2023-05-24T01:32:37;98039.88;;;11.35;63.33
47374;BME280;33123;50.118;10.272;2023-05-24T01:35:04;98039.31;;;11.33;63.42
47374;BME280;33123;50.118;10.272;2023-05-24T01:37:31;98037.16;;;11.30;63.55
47374;BME280;33123;50.118;10.272;2023-05-24T01:39:58;98032.13;;;11.28;63.54
47374;BME280;33123;50.118;10.272;2023-05-24T01:42:26;98026.53;;;11.25;63.25
47374;BME280;33123;50.118;10.272;2023-05-24T01:45:01;98033.38;;;11.26;63.44
47374;BME280;33123;50.118;10.272;2023-05-24T01:47:35;98037.31;;;11.23;63.40
47374;BME280;33123;50.118;10.272;2023-05-24T01:50:11;98029.66;;;11.22;63.51
47374;BME280;33123;50.118;10.272;2023-05-24T01:52:42;98026.44;;;11.20;63.40
47374;BME280;33123;50.118;10.272;2023-05-24T01:55:12;98029.06;;;11.20;63.88
47374;BME280;33123;50.118;10.272;2023-05-24T01:57:42;98026.16;;;11.16;63.86
47374;BME280;33123;50.118;10.272;2023-05-24T02:00:13;98029.31;;;11.18;64.31
47374;BME280;33123;50.118;10.272;2023-05-24T02:02:40;98031.97;;;11.18;64.32
47374;BME280;33123;50.118;10.272;2023-05-24T02:05:08;98033.31;;;11.21;64.34
47374;BME280;33123;50.118;10.272;2023-05-24T02:07:35;98034.94;;;11.22;64.22
47374;BME280;33123;50.118;10.272;2023-05-24T02:10:02;98036.28;;;11.24;64.14
47374;BME280;33123;50.118;10.272;2023-05-24T02:12:29;98037.63;;;11.27;64.12
47374;BME280;33123;50.118;10.272;2023-05-24T02:14:56;98020.13;;;11.21;64.10
47374;BME280;33123;50.118;10.272;2023-05-24T02:17:24;98028.19;;;11.31;64.28
47374;BME280;33123;50.118;10.272;2023-05-24T02:19:51;98030.81;;;11.31;64.58
47374;BME280;33123;50.118;10.272;2023-05-24T02:22:18;98034.59;;;11.35;64.57
47374;BME280;33123;50.118;10.272;2023-05-24T02:24:46;98035.38;;;11.35;64.67
47374;BME280;33123;50.118;10.272;2023-05-24T02:27:13;98036.72;;;11.38;64.62
47374;BME280;33123;50.118;10.272;2023-05-24T02:29:40;98039.38;;;11.38;64.19
47374;BME280;33123;50.118;10.272;2023-05-24T02:32:07;98035.13;;;11.37;64.08
47374;BME280;33123;50.118;10.272;2023-05-24T02:34:35;98040.41;;;11.37;63.87
47374;BME280;33123;50.118;10.272;2023-05-24T02:37:02;98035.13;;;11.37;64.17
47374;BME280;33123;50.118;10.272;2023-05-24T02:39:29;98034.91;;;11.39;63.83
47374;BME280;33123;50.118;10.272;2023-05-24T02:41:55;98026.16;;;11.38;64.07
47374;BME280;33123;50.118;10.272;2023-05-24T02:44:22;98033.06;;;11.39;63.41
47374;BME280;33123;50.118;10.272;2023-05-24T02:46:48;98029.63;;;11.39;63.41
47374;BME280;33123;50.118;10.272;2023-05-24T02:49:15;98027.00;;;11.39;63.61
47374;BME280;33123;50.118;10.272;2023-05-24T02:51:43;98033.88;;;11.40;63.41
47374;BME280;33123;50.118;10.272;2023-05-24T02:54:09;98033.06;;;11.39;63.33
47374;BME280;33123;50.118;10.272;2023-05-24T02:56:36;98027.53;;;11.41;63.13
47374;BME280;33123;50.118;10.272;2023-05-24T02:59:03;98028.09;;;11.43;63.42
47374;BME280;33123;50.118;10.272;2023-05-24T03:01:31;98032.31;;;11.44;63.57
47374;BME280;33123;50.118;10.272;2023-05-24T03:03:58;98025.44;;;11.43;62.87
47374;BME280;33123;50.118;10.272;2023-05-24T03:06:25;98031.28;;;11.45;63.38
47374;BME280;33123;50.118;10.272;2023-05-24T03:08:53;98019.94;;;11.44;63.50
47374;BME280;33123;50.118;10.272;2023-05-24T03:11:19;98031.28;;;11.45;63.75
47374;BME280;33123;50.118;10.272;2023-05-24T03:13:46;98031.28;;;11.45;62.99
47374;BME280;33123;50.118;10.272;2023-05-24T03:16:13;98028.09;;;11.43;62.49
47374;BME280;33123;50.118;10.272;2023-05-24T03:18:41;98028.88;;;11.43;63.18
47374;BME280;33123;50.118;10.272;2023-05-24T03:21:08;98031.78;;;11.42;63.00
47374;BME280;33123;50.118;10.272;2023-05-24T03:23:34;98034.66;;;11.40;62.89
47374;BME280;33123;50.118;10.272;2023-05-24T03:26:03;98025.38;;;11.37;63.05
47374;BME280;33123;50.118;10.272;2023-05-24T03:28:29;98032.50;;;11.37;62.88
47374;BME280;33123;50.118;10.272;2023-05-24T03:30:58;98031.94;;;11.35;62.98
47374;BME280;33123;50.118;10.272;2023-05-24T03:33:24;98034.84;;;11.33;63.24
47374;BME280;33123;50.118;10.272;2023-05-24T03:35:51;98040.91;;;11.34;63.33
47374;BME280;33123;50.118;10.272;2023-05-24T03:38:17;98030.91;;;11.36;63.70
47374;BME280;33123;50.118;10.272;2023-05-24T03:40:44;98030.91;;;11.36;63.34
47374;BME280;33123;50.118;10.272;2023-05-24T03:43:12;98035.63;;;11.34;63.46
47374;BME280;33123;50.118;10.272;2023-05-24T03:45:38;98039.94;;;11.40;63.69
47374;BME280;33123;50.118;10.272;2023-05-24T03:48:05;98035.22;;;11.42;63.59
47374;BME280;33123;50.118;10.272;2023-05-24T03:50:32;98043.44;;;11.46;63.19
47374;BME280;33123;50.118;10.272;2023-05-24T03:52:58;98032.09;;;11.45;63.14
47374;BME280;33123;50.118;10.272;2023-05-24T03:55:25;98034.00;;;11.50;63.12
47374;BME280;33123;50.118;10.272;2023-05-24T03:57:51;98030.56;;;11.49;62.62
47374;BME280;33123;50.118;10.272;2023-05-24T04:00:20;98034.56;;;11.52;63.04
47374;BME280;33123;50.118;10.272;2023-05-24T04:02:46;98039.59;;;11.53;62.57
47374;BME280;33123;50.118;10.272;2023-05-24T04:05:13;98034.09;;;11.55;62.73
47374;BME280;33123;50.118;10.272;2023-05-24T04:07:40;98034.63;;;11.57;62.49
47374;BME280;33123;50.118;10.272;2023-05-24T04:10:08;98032.53;;;11.59;62.48
47374;BME280;33123;50.118;10.272;2023-05-24T04:12:35;98040.22;;;11.60;62.36
47374;BME280;33123;50.118;10.272;2023-05-24T04:15:02;98039.72;;;11.63;61.67
47374;BME280;33123;50.118;10.272;2023-05-24T04:17:30;98037.16;;;11.69;61.80
47374;BME280;33123;50.118;10.272;2023-05-24T04:19:59;98039.53;;;11.70;61.16
47374;BME280;33123;50.118;10.272;2023-05-24T04:22:25;98041.13;;;11.71;61.05
47374;BME280;33123;50.118;10.272;2023-05-24T04:24:52;98047.00;;;11.73;61.10
47374;BME280;33123;50.118;10.272;2023-05-24T04:27:18;98041.47;;;11.75;61.30
47374;BME280;33123;50.118;10.272;2023-05-24T04:29:46;98047.28;;;11.77;61.05
47374;BME280;33123;50.118;10.272;2023-05-24T04:32:14;98036.50;;;11.78;60.74
47374;BME280;33123;50.118;10.272;2023-05-24T04:34:43;98034.41;;;11.80;60.57
47374;BME280;33123;50.118;10.272;2023-05-24T04:37:10;98037.38;;;11.84;60.86
47374;BME280;33123;50.118;10.272;2023-05-24T04:39:38;98042.88;;;11.82;60.33
47374;BME280;33123;50.118;10.272;2023-05-24T04:42:06;98045.84;;;11.86;60.69
47374;BME280;33123;50.118;10.272;2023-05-24T04:44:32;98046.41;;;11.88;60.75
47374;BME280;33123;50.118;10.272;2023-05-24T04:46:59;98053.09;;;11.96;61.20
47374;BME280;33123;50.118;10.272;2023-05-24T04:49:27;98046.66;;;12.08;61.16
47374;BME280;33123;50.118;10.272;2023-05-24T04:51:55;98048.72;;;12.28;60.97
47374;BME280;33123;50.118;10.272;2023-05-24T04:54:22;98058.75;;;12.53;59.26
47374;BME280;33123;50.118;10.272;2023-05-24T04:56:48;98066.44;;;12.82;58.70
47374;BME280;33123;50.118;10.272;2023-05-24T04:59:15;98064.50;;;13.04;57.00
47374;BME280;33123;50.118;10.272;2023-05-24T05:01:42;98067.47;;;13.40;56.97
47374;BME280;33123;50.118;10.272;2023-05-24T05:04:09;98058.59;;;13.61;53.90
47374;BME280;33123;50.118;10.272;2023-05-24T05:06:35;98072.78;;;13.92;53.79
47374;BME280;33123;50.118;10.272;2023-05-24T05:09:06;98076.06;;;14.20;52.79
47374;BME280;33123;50.118;10.272;2023-05-24T05:11:35;98075.63;;;14.43;52.16
47374;BME280;33123;50.118;10.272;2023-05-24T05:14:02;98082.34;;;14.61;50.75
47374;BME280;33123;50.118;10.272;2023-05-24T05:16:28;98083.13;;;14.62;49.57
47374;BME280;33123;50.118;10.272;2023-05-24T05:18:56;98087.91;;;14.70;50.47
47374;BME280;33123;50.118;10.272;2023-05-24T05:21:22;98081.84;;;14.85;51.22
47374;BME280;33123;50.118;10.272;2023-05-24T05:23:49;98088.22;;;14.99;49.92
47374;BME280;33123;50.118;10.272;2023-05-24T05:26:17;98089.84;;;15.05;49.17
47374;BME280;33123;50.118;10.272;2023-05-24T05:28:43;98088.22;;;15.09;49.97
47374;BME280;33123;50.118;10.272;2023-05-24T05:31:10;98086.34;;;15.04;49.40
47374;BME280;33123;50.118;10.272;2023-05-24T05:33:37;98090.63;;;14.95;48.77
47374;BME280;33123;50.118;10.272;2023-05-24T05:36:03;98087.16;;;14.85;49.02
47374;BME280;33123;50.118;10.272;2023-05-24T05:38:30;98088.47;;;14.72;50.04
47374;BME280;33123;50.118;10.272;2023-05-24T05:40:57;98084.47;;;14.69;50.38
47374;BME280;33123;50.118;10.272;2023-05-24T05:43:25;98091.38;;;14.81;50.60
47374;BME280;33123;50.118;10.272;2023-05-24T05:45:53;98082.38;;;14.97;49.72
47374;BME280;33123;50.118;10.272;2023-05-24T05:48:20;98089.28;;;14.98;49.08
47374;BME280;33123;50.118;10.272;2023-05-24T05:50:46;98088.75;;;15.06;48.57
47374;BME280;33123;50.118;10.272;2023-05-24T05:53:14;98097.78;;;15.05;48.41
47374;BME280;33123;50.118;10.272;2023-05-24T05:55:41;98094.59;;;15.13;50.58
47374;BME280;33123;50.118;10.272;2023-05-24T05:58:08;98096.19;;;15.35;49.51
47374;BME280;33123;50.118;10.272;2023-05-24T06:00:35;98101.75;;;15.69;49.13
47374;BME280;33123;50.118;10.272;2023-05-24T06:03:02;98091.78;;;16.10;48.88
47374;BME280;33123;50.118;10.272;2023-05-24T06:05:29;98101.19;;;16.57;47.18
47374;BME280;33123;50.118;10.272;2023-05-24T06:07:55;98106.81;;;17.00;45.49
47374;BME280;33123;50.118;10.272;2023-05-24T06:10:22;98109.78;;;17.27;44.01
47374;BME280;33123;50.118;10.272;2023-05-24T06:12:48;98110.59;;;17.57;42.61
47374;BME280;33123;50.118;10.272;2023-05-24T06:15:15;98114.25;;;17.66;42.29
47374;BME280;33123;50.118;10.272;2023-05-24T06:17:43;98106.75;;;17.68;41.28
47374;BME280;33123;50.118;10.272;2023-05-24T06:20:12;98108.69;;;17.62;40.72
47374;BME280;33123;50.118;10.272;2023-05-24T06:22:41;98118.59;;;17.57;42.44
47374;BME280;33123;50.118;10.272;2023-05-24T06:25:08;98111.00;;;17.69;41.98
47374;BME280;33123;50.118;10.272;2023-05-24T06:27:38;98112.97;;;17.87;41.52
47374;BME280;33123;50.118;10.272;2023-05-24T06:30:07;98116.63;;;17.97;40.59
47374;BME280;33123;50.118;10.272;2023-05-24T06:32:33;98115.25;;;18.23;40.20
47374;BME280;33123;50.118;10.272;2023-05-24T06:35:02;98105.56;;;18.32;39.37
47374;BME280;33123;50.118;10.272;2023-05-24T06:37:28;98113.94;;;18.44;38.92
47374;BME280;33123;50.118;10.272;2023-05-24T06:39:56;98122.03;;;18.58;38.49
47374;BME280;33123;50.118;10.272;2023-05-24T06:42:22;98125.78;;;18.57;37.96
47374;BME280;33123;50.118;10.272;2023-05-24T06:44:49;98135.16;;;18.55;38.70
47374;BME280;33123;50.118;10.272;2023-05-24T06:47:15;98136.94;;;18.40;37.64
47374;BME280;33123;50.118;10.272;2023-05-24T06:49:42;98135.53;;;18.24;38.64
47374;BME280;33123;50.118;10.272;2023-05-24T06:52:10;98128.63;;;17.99;38.37
47374;BME280;33123;50.118;10.272;2023-05-24T06:54:38;98123.63;;;17.87;38.76
47374;BME280;33123;50.118;10.272;2023-05-24T06:57:04;98133.09;;;17.75;39.19
47374;BME280;33123;50.118;10.272;2023-05-24T06:59:31;98130.88;;;17.53;39.32
47374;BME280;33123;50.118;10.272;2023-05-24T07:01:57;98133.41;;;17.39;39.67
47374;BME280;33123;50.118;10.272;2023-05-24T07:04:24;98134.31;;;17.24;40.17
47374;BME280;33123;50.118;10.272;2023-05-24T07:06:51;98137.63;;;17.11;40.25
47374;BME280;33123;50.118;10.272;2023-05-24T07:09:19;98126.56;;;16.94;40.71
47374;BME280;33123;50.118;10.272;2023-05-24T07:11:46;98141.50;;;16.84;40.53
47374;BME280;33123;50.118;10.272;2023-05-24T07:14:12;98133.03;;;16.77;41.54
47374;BME280;33123;50.118;10.272;2023-05-24T07:16:39;98132.50;;;16.70;42.07
47374;BME280;33123;50.118;10.272;2023-05-24T07:19:06;98135.72;;;16.72;41.77
47374;BME280;33123;50.118;10.272;2023-05-24T07:21:32;98137.56;;;16.77;41.14
47374;BME280;33123;50.118;10.272;2023-05-24T07:23:59;98142.91;;;16.67;41.00
47374;BME280;33123;50.118;10.272;2023-05-24T07:26:27;98142.63;;;16.73;41.52
47374;BME280;33123;50.118;10.272;2023-05-24T07:28:54;98141.56;;;16.69;41.08
47374;BME280;33123;50.118;10.272;2023-05-24T07:31:21;98137.34;;;16.58;40.32
47374;BME280;33123;50.118;10.272;2023-05-24T07:33:47;98139.47;;;16.61;40.46
47374;BME280;33123;50.118;10.272;2023-05-24T07:36:14;98136.31;;;16.49;40.74
47374;BME280;33123;50.118;10.272;2023-05-24T07:38:41;98146.63;;;16.66;41.30
47374;BME280;33123;50.118;10.272;2023-05-24T07:41:07;98146.38;;;16.72;41.59
47374;BME280;33123;50.118;10.272;2023-05-24T07:43:35;98139.13;;;16.83;40.96
47374;BME280;33123;50.118;10.272;2023-05-24T07:46:02;98141.72;;;16.93;39.33
47374;BME280;33123;50.118;10.272;2023-05-24T07:48:29;98142.47;;;16.99;39.71
47374;BME280;33123;50.118;10.272;2023-05-24T07:50:55;98152.72;;;17.21;40.09
47374;BME280;33123;50.118;10.272;2023-05-24T07:53:22;98141.44;;;17.34;39.36
47374;BME280;33123;50.118;10.272;2023-05-24T07:55:49;98139.13;;;17.56;39.71
47374;BME280;33123;50.118;10.272;2023-05-24T07:58:15;98135.56;;;17.66;39.27
47374;BME280;33123;50.118;10.272;2023-05-24T08:00:43;98148.25;;;17.79;39.60
47374;BME280;33123;50.118;10.272;2023-05-24T08:03:11;98148.38;;;17.93;40.77
47374;BME280;33123;50.118;10.272;2023-05-24T08:08:55;98143.97;;;18.31;38.75
47374;BME280;33123;50.118;10.272;2023-05-24T08:11:21;98153.13;;;18.49;37.61
47374;BME280;33123;50.118;10.272;2023-05-24T08:13:48;98145.97;;;18.63;38.00
47374;BME280;33123;50.118;10.272;2023-05-24T08:16:17;98108.31;;;18.46;37.34
47374;BME280;33123;50.118;10.272;2023-05-24T08:18:43;98156.44;;;18.60;35.81
47374;BME280;33123;50.118;10.272;2023-05-24T08:21:10;98159.09;;;18.60;37.08
47374;BME280;33123;50.118;10.272;2023-05-24T08:23:37;98158.84;;;18.61;36.67
47374;BME280;33123;50.118;10.272;2023-05-24T08:26:04;98156.34;;;18.70;35.48
47374;BME280;33123;50.118;10.272;2023-05-24T08:28:31;98163.72;;;18.78;34.27
47374;BME280;33123;50.118;10.272;2023-05-24T08:30:57;98170.88;;;19.02;35.55
47374;BME280;33123;50.118;10.272;2023-05-24T08:33:26;98142.03;;;18.98;34.32
47374;BME280;33123;50.118;10.272;2023-05-24T08:35:55;98161.34;;;19.47;33.95
47374;BME280;33123;50.118;10.272;2023-05-24T08:38:21;98168.28;;;19.67;34.72
47374;BME280;33123;50.118;10.272;2023-05-24T08:40:48;98152.69;;;19.88;34.21
47374;BME280;33123;50.118;10.272;2023-05-24T08:43:15;98150.50;;;20.03;34.27
47374;BME280;33123;50.118;10.272;2023-05-24T08:45:43;98159.56;;;20.21;36.24
47374;BME280;33123;50.118;10.272;2023-05-24T08:48:11;98154.28;;;20.30;33.65
47374;BME280;33123;50.118;10.272;2023-05-24T08:50:41;98152.91;;;20.19;34.86
47374;BME280;33123;50.118;10.272;2023-05-24T08:53:09;98154.28;;;20.30;33.18
47374;BME280;33123;50.118;10.272;2023-05-24T08:55:37;98156.38;;;20.33;34.77
47374;BME280;33123;50.118;10.272;2023-05-24T08:58:05;98149.94;;;20.34;35.13
47374;BME280;33123;50.118;10.272;2023-05-24T09:00:32;98153.69;;;20.33;33.42
47374;BME280;33123;50.118;10.272;2023-05-24T09:03:00;98148.34;;;20.33;34.66
47374;BME280;33123;50.118;10.272;2023-05-24T09:05:29;98147.56;;;20.33;33.49
47374;BME280;33123;50.118;10.272;2023-05-24T09:07:59;98152.41;;;20.30;33.16
47374;BME280;33123;50.118;10.272;2023-05-24T09:10:27;98149.53;;;20.13;33.63
47374;BME280;33123;50.118;10.272;2023-05-24T09:12:56;98151.03;;;20.06;34.22
47374;BME280;33123;50.118;10.272;2023-05-24T09:15:23;98151.28;;;19.90;33.77
47374;BME280;33123;50.118;10.272;2023-05-24T09:17:50;98063.00;;;18.97;34.27
47374;BME280;33123;50.118;10.272;2023-05-24T09:20:17;98158.56;;;19.38;33.64
47374;BME280;33123;50.118;10.272;2023-05-24T09:22:49;98164.00;;;19.14;34.97
47374;BME280;33123;50.118;10.272;2023-05-24T09:25:18;98161.91;;;18.92;34.97
47374;BME280;33123;50.118;10.272;2023-05-24T09:27:49;98157.66;;;18.72;35.32
47374;BME280;33123;50.118;10.272;2023-05-24T09:30:16;98151.44;;;18.53;35.09
47374;BME280;33123;50.118;10.272;2023-05-24T09:32:53;98154.66;;;18.31;36.07
47374;BME280;33123;50.118;10.272;2023-05-24T09:35:21;98148.75;;;18.10;36.25
47374;BME280;33123;50.118;10.272;2023-05-24T09:37:48;98152.38;;;17.96;36.78
47374;BME280;33123;50.118;10.272;2023-05-24T09:40:19;98152.47;;;17.85;38.36
47374;BME280;33123;50.118;10.272;2023-05-24T09:42:47;98152.06;;;17.68;37.53
47374;BME280;33123;50.118;10.272;2023-05-24T09:45:16;98156.38;;;17.64;38.08
47374;BME280;33123;50.118;10.272;2023-05-24T09:47:44;98156.97;;;17.56;38.26
47374;BME280;33123;50.118;10.272;2023-05-24T09:50:12;98158.09;;;17.50;39.01
47374;BME280;33123;50.118;10.272;2023-05-24T09:52:40;98152.56;;;17.41;39.32
47374;BME280;33123;50.118;10.272;2023-05-24T09:55:11;98161.94;;;17.38;39.65
47374;BME280;33123;50.118;10.272;2023-05-24T09:57:42;98175.81;;;17.30;39.55
47374;BME280;33123;50.118;10.272;2023-05-24T10:00:10;98171.63;;;17.19;39.40
47374;BME280;33123;50.118;10.272;2023-05-24T10:02:41;98164.25;;;17.11;39.65
47374;BME280;33123;50.118;10.272;2023-05-24T10:05:09;98166.94;;;17.06;40.16
47374;BME280;33123;50.118;10.272;2023-05-24T10:07:37;98167.00;;;16.96;39.69
47374;BME280;33123;50.118;10.272;2023-05-24T10:10:05;98167.53;;;16.93;40.09
47374;BME280;33123;50.118;10.272;2023-05-24T10:12:32;98165.44;;;16.89;39.84
47374;BME280;33123;50.118;10.272;2023-05-24T10:15:01;98163.84;;;16.94;39.45
47374;BME280;33123;50.118;10.272;2023-05-24T10:17:29;98165.91;;;17.02;40.23
47374;BME280;33123;50.118;10.272;2023-05-24T10:19:56;98151.78;;;17.01;39.94
47374;BME280;33123;50.118;10.272;2023-05-24T10:22:24;98159.34;;;17.28;39.30
47374;BME280;33123;50.118;10.272;2023-05-24T10:24:52;98158.16;;;17.45;38.71
47374;BME280;33123;50.118;10.272;2023-05-24T10:27:26;98162.16;;;17.71;39.37
47374;BME280;33123;50.118;10.272;2023-05-24T10:30:02;98166.22;;;17.98;38.43
47374;BME280;33123;50.118;10.272;2023-05-24T10:32:35;98165.50;;;18.40;39.76
47374;BME280;33123;50.118;10.272;2023-05-24T10:35:05;98159.66;;;18.81;36.95
47374;BME280;33123;50.118;10.272;2023-05-24T10:37:32;98157.25;;;19.36;37.00
47374;BME280;33123;50.118;10.272;2023-05-24T10:40:00;98090.34;;;19.27;34.59
47374;BME280;33123;50.118;10.272;2023-05-24T10:42:29;98157.56;;;19.99;34.93
47374;BME280;33123;50.118;10.272;2023-05-24T10:44:56;98149.75;;;20.17;35.35
47374;BME280;33123;50.118;10.272;2023-05-24T10:47:25;98159.06;;;20.33;33.53
47374;BME280;33123;50.118;10.272;2023-05-24T10:49:56;98146.38;;;20.39;32.64
47374;BME280;33123;50.118;10.272;2023-05-24T10:52:32;98156.78;;;20.68;33.39
47374;BME280;33123;50.118;10.272;2023-05-24T10:55:04;98156.81;;;20.90;33.92
47374;BME280;33123;50.118;10.272;2023-05-24T10:57:32;98151.81;;;20.97;32.77
47374;BME280;33123;50.118;10.272;2023-05-24T11:03:00;98131.94;;;21.57;32.17
47374;BME280;33123;50.118;10.272;2023-05-24T11:05:33;98151.38;;;22.16;33.01
47374;BME280;33123;50.118;10.272;2023-05-24T11:07:59;98148.19;;;22.62;32.34
47374;BME280;33123;50.118;10.272;2023-05-24T11:10:31;98144.91;;;23.09;31.27
47374;BME280;33123;50.118;10.272;2023-05-24T11:12:59;98139.03;;;23.41;29.82
47374;BME280;33123;50.118;10.272;2023-05-24T11:15:27;98142.50;;;23.59;28.09
47374;BME280;33123;50.118;10.272;2023-05-24T11:18:15;98130.16;;;23.58;28.82
47374;BME280;33123;50.118;10.272;2023-05-24T11:20:44;98129.06;;;23.42;28.00
47374;BME280;33123;50.118;10.272;2023-05-24T11:23:13;98126.28;;;22.95;28.59
47374;BME280;33123;50.118;10.272;2023-05-24T11:25:41;98129.06;;;22.73;30.55
47374;BME280;33123;50.118;10.272;2023-05-24T11:28:10;98121.47;;;22.57;31.39
47374;BME280;33123;50.118;10.272;2023-05-24T11:30:41;98124.47;;;22.07;29.25
47374;BME280;33123;50.118;10.272;2023-05-24T11:33:14;98119.75;;;21.82;31.56
47374;BME280;33123;50.118;10.272;2023-05-24T11:35:42;98116.78;;;21.52;31.03
47374;BME280;33123;50.118;10.272;2023-05-24T11:38:09;98115.22;;;21.15;31.00
47374;BME280;33123;50.118;10.272;2023-05-24T11:40:38;98112.94;;;21.00;32.57
47374;BME280;33123;50.118;10.272;2023-05-24T11:43:10;98112.78;;;20.82;32.86
47374;BME280;33123;50.118;10.272;2023-05-24T11:45:38;98113.75;;;20.87;33.12
47374;BME280;33123;50.118;10.272;2023-05-24T11:48:05;98116.03;;;20.93;34.53
47374;BME280;33123;50.118;10.272;2023-05-24T11:50:37;98106.16;;;21.02;32.63
47374;BME280;33123;50.118;10.272;2023-05-24T11:53:04;98110.69;;;21.16;33.89
47374;BME280;33123;50.118;10.272;2023-05-24T11:55:31;98107.25;;;21.24;33.51
47374;BME280;33123;50.118;10.272;2023-05-24T11:57:58;98105.31;;;21.16;32.19
47374;BME280;33123;50.118;10.272;2023-05-24T12:00:26;98107.38;;;20.96;31.68
47374;BME280;33123;50.118;10.272;2023-05-24T12:02:55;98112.69;;;20.88;32.80
47374;BME280;33123;50.118;10.272;2023-05-24T12:05:22;98105.22;;;20.85;33.27
47374;BME280;33123;50.118;10.272;2023-05-24T12:08:00;98109.69;;;20.89;30.90
47374;BME280;33123;50.118;10.272;2023-05-24T12:10:29;98109.28;;;20.82;30.71
47374;BME280;33123;50.118;10.272;2023-05-24T12:12:56;98099.63;;;20.72;32.91
47374;BME280;33123;50.118;10.272;2023-05-24T12:15:23;98111.06;;;20.87;33.27
47374;BME280;33123;50.118;10.272;2023-05-24T12:17:50;98107.63;;;21.08;32.61
47374;BME280;33123;50.118;10.272;2023-05-24T12:20:17;98103.66;;;21.28;31.98
47374;BME280;33123;50.118;10.272;2023-05-24T12:22:47;98087.00;;;21.31;32.54
47374;BME280;33123;50.118;10.272;2023-05-24T12:25:17;98108.72;;;21.52;32.24
47374;BME280;33123;50.118;10.272;2023-05-24T12:27:46;98109.91;;;21.60;31.86
47374;BME280;33123;50.118;10.272;2023-05-24T12:30:14;98103.56;;;21.56;30.53
47374;BME280;33123;50.118;10.272;2023-05-24T12:32:46;98106.09;;;21.61;31.49
47374;BME280;33123;50.118;10.272;2023-05-24T12:35:12;98098.75;;;21.44;31.75
47374;BME280;33123;50.118;10.272;2023-05-24T12:37:39;98102.03;;;21.41;30.47
47374;BME280;33123;50.118;10.272;2023-05-24T12:40:14;98097.19;;;21.43;32.36
47374;BME280;33123;50.118;10.272;2023-05-24T12:42:43;98100.22;;;21.50;31.28
47374;BME280;33123;50.118;10.272;2023-05-24T12:45:10;98105.91;;;21.57;31.59
47374;BME280;33123;50.118;10.272;2023-05-24T12:47:37;98099.50;;;21.67;31.85
47374;BME280;33123;50.118;10.272;2023-05-24T12:50:04;98093.50;;;21.70;32.39
47374;BME280;33123;50.118;10.272;2023-05-24T12:52:31;98092.56;;;21.66;30.56
47374;BME280;33123;50.118;10.272;2023-05-24T12:54:58;98089.56;;;21.68;31.34
47374;BME280;33123;50.118;10.272;2023-05-24T12:57:25;98092.72;;;21.70;31.22
47374;BME280;33123;50.118;10.272;2023-05-24T12:59:54;98085.19;;;21.72;30.78
47374;BME280;33123;50.118;10.272;2023-05-24T13:02:21;98053.78;;;21.41;31.81